Acarlar, Turkey

6:41 PM +03 on June 25, 2018 (GMT +0300)
east of aegean sea | | Change Station

Elev 113 ft 38.17 °N, 27.49 °E | Updated 49 seconds ago

Clear
Clear
86.7 °F
Feels Like 92 °F
N
5
Wind Variable Wind from South
Gusts 0.0 mph

Today
High -- | Low -- °F
--% Chance of Precip.
Yesterday
High -- | Low -- °F
Precip. -- in
Pressure 29.74 in
Visibility 6.2 miles
Clouds Few 3000 ft
Heat Index 92 °F
Dew Point 70 °F
Humidity 58%
Rainfall 0.00 in
Snow Depth Not available.
5:49 AM 8:36 PM
Waxing Gibbous, 94% visible
METAR LTBJ 251520Z 35017KT 9999 FEW030 30/16 Q1007 NOSIG RMK RWY16 33015KT
Pressure 29.74 in
Visibility 6.2 miles
Clouds Few 3000 ft
Heat Index 92 °F
Dew Point 70 °F
Humidity 58%
Rainfall 0.00 in
Snow Depth Not available.
5:49 AM 8:36 PM
Waxing Gibbous, 94% visible
METAR LTBJ 251520Z 35017KT 9999 FEW030 30/16 Q1007 NOSIG RMK RWY16 33015KT

Get Severe Weather Alerts

Thanks for signing up!

Be on the lookout for a verification email in your inbox.

You'll start receiving the daily forecast at 6 AM.

×

10-Day Weather Forecast

×

Almanac

Astronomy

Jun. 25, 2018 Rise Set
Actual Time
Civil Twilight
Nautical Twilight
Astronomical Twilight
Moon
Length of Visible Light
Length of Day
Tomorrow will be .
, % of the Moon is Illuminated

Today's Extremes

Country Highs Country Lows

Community

WunderPhotos

Category 6

Welcome to Category 6. This is the collective home for Weather Underground's featured writeups by Dr. Jeff Masters (right), Bob Henson (left), Chris Burt, and other regular contributors.

Nearby

Air Quality

  Air Quality AQ Index Pollutant
Not available.

Snow Depth

Station Depth Elevation

Earthquake Activity

City Distance Mag. Time & Date
Minimum magnitude displayed is 2.5.

Coastal Water Temperatures

Place Temperature

Stations

Nearby Weather Stations

Station Location Temp. Windchill Dew Point Humidity Wind Precip. Elev Updated Type